South Chatham, MA (02659)

3:38 AM EST on February 24, 2017 (GMT -0500)
| | Change Station

Elev -9999 ft 0.00 °N, 0.00 °E | Updated

Fog
Fog
°F
Feels Like °F
N
Wind Variable Wind from North
Gusts mph

Today
High -- | Low -- °F
--% Chance of Precip.
Yesterday
High -- | Low -- °F
Precip. -- in
Pressure 29.96 in
Visibility 0.5 miles
Clouds
Dew Point Not available.
Humidity Not available.
Rainfall --
Snow Depth Not available.
6:22 AM 5:24 PM
Waning Crescent, 6% visible
SPECI KCQX 240831Z AUTO 23007KT 190V250 1/2SM FG VV002 07/07 A2996 RMK AO2 T00670067
Pressure 29.96 in
Visibility 0.5 miles
Clouds
Dew Point Not available.
Humidity Not available.
Rainfall --
Snow Depth Not available.
6:22 AM 5:24 PM
Waning Crescent, 6% visible
SPECI KCQX 240831Z AUTO 23007KT 190V250 1/2SM FG VV002 07/07 A2996 RMK AO2 T00670067

Get Your Daily Forecast Email!

Thanks for signing up!

Be on the lookout for a verification email in your inbox.

You'll start receiving the daily forecast at 8 AM.

×

10-Day Weather Forecast

Almanac

Astronomy

Feb. 24, 2017 Rise Set
Actual Time
Civil Twilight
Nautical Twilight
Astronomical Twilight
Moon
Length of Visible Light
Length of Day
Tomorrow will be .
, % of the Moon is Illuminated

Today's Extremes

State Highs State Lows

Community

WunderPhotos

Upload Photos

1,962,540 photos uploaded!

WunderBlog® & News

Nearby

Air Quality

  Air Quality AQ Index Pollutant
Not available.

Snow Depth

Station Depth Elevation

Earthquake Activity

City Distance Mag. Time & Date
Minimum magnitude displayed is 2.5.

Coastal Water Temperatures

Place Temperature

Stations

Nearby Weather Stations

Station Location Temp. Windchill Dew Point Humidity Wind Precip. Elev Updated Type
                   

Watches & Warnings

There are currently no watches in effect.